createdAt,value
2023-03-13T00:07:42.877Z,8.58
2023-03-13T00:18:04.347Z,8.61
2023-03-13T00:28:27.178Z,8.60
2023-03-13T00:38:48.915Z,8.56
2023-03-13T00:49:10.277Z,8.64
2023-03-13T00:59:31.631Z,8.59
2023-03-13T01:09:53.068Z,8.49
2023-03-13T01:20:14.443Z,8.45
2023-03-13T01:30:35.781Z,8.40
2023-03-13T01:40:57.130Z,8.41
2023-03-13T01:51:18.453Z,8.39
2023-03-13T02:01:41.299Z,8.38
2023-03-13T02:12:14.889Z,8.43
2023-03-13T02:22:45.222Z,8.46
2023-03-13T02:33:06.620Z,8.48
2023-03-13T02:43:32.622Z,8.48
2023-03-13T02:53:55.599Z,8.52
2023-03-13T03:04:16.990Z,8.52
2023-03-13T03:14:38.524Z,8.58
2023-03-13T03:25:00.115Z,8.66
2023-03-13T03:35:21.480Z,8.63
2023-03-13T03:45:42.866Z,8.72
2023-03-13T03:56:04.468Z,8.78
2023-03-13T04:06:25.808Z,8.82
2023-03-13T04:16:47.312Z,8.87
2023-03-13T04:27:08.757Z,8.92
2023-03-13T04:37:30.098Z,9.06
2023-03-13T04:47:51.479Z,9.17
2023-03-13T04:58:12.847Z,9.23
2023-03-13T05:08:35.593Z,9.32
2023-03-13T05:18:56.952Z,9.55
2023-03-13T05:29:18.324Z,9.71
2023-03-13T05:39:39.676Z,9.85
2023-03-13T05:50:01.009Z,9.95
2023-03-13T06:00:22.576Z,10.05
2023-03-13T06:10:43.921Z,10.18
2023-03-13T06:21:05.432Z,10.40
2023-03-13T06:31:26.961Z,10.71
2023-03-13T06:41:48.328Z,10.89
2023-03-13T06:52:09.734Z,11.24
2023-03-13T07:02:31.158Z,11.36
2023-03-13T07:12:52.507Z,11.45
2023-03-13T07:23:13.866Z,11.54
2023-03-13T07:33:35.444Z,11.67
2023-03-13T07:43:56.900Z,11.95
2023-03-13T07:54:18.289Z,12.05
2023-03-13T08:04:40.170Z,12.28
2023-03-13T08:15:01.508Z,12.18
2023-03-13T08:25:22.923Z,12.21
2023-03-13T08:35:44.466Z,12.30
2023-03-13T08:46:05.981Z,12.41
2023-03-13T08:56:28.628Z,12.61
2023-03-13T09:06:50.071Z,12.65
2023-03-13T09:17:11.443Z,12.58
2023-03-13T09:27:32.905Z,12.58
2023-03-13T09:37:54.331Z,12.76
2023-03-13T09:48:15.710Z,13.05
2023-03-13T09:58:38.243Z,13.46
2023-03-13T10:09:01.477Z,13.59
2023-03-13T10:19:27.248Z,13.74
2023-03-13T10:29:48.617Z,13.98
2023-03-13T10:40:14.647Z,14.31
2023-03-13T10:50:36.100Z,14.45
2023-03-13T11:01:15.403Z,14.38
2023-03-13T11:11:47.804Z,14.56
2023-03-13T11:22:12.243Z,14.61
2023-03-13T11:32:47.666Z,14.65
2023-03-13T11:43:24.019Z,14.67
2023-03-13T11:53:52.910Z,15.07
2023-03-13T12:04:17.311Z,15.47
2023-03-13T12:14:44.978Z,15.73
2023-03-13T12:25:12.780Z,15.94
2023-03-13T12:35:35.310Z,16.06
2023-03-13T12:45:56.764Z,16.26
2023-03-13T12:56:30.538Z,16.41
2023-03-13T13:06:59.322Z,16.53
2023-03-13T13:17:21.137Z,16.64
2023-03-13T13:27:42.476Z,16.94
2023-03-13T13:38:19.346Z,16.88
2023-03-13T13:48:43.043Z,17.18
2023-03-13T13:59:16.573Z,16.97
2023-03-13T14:09:37.988Z,17.12
2023-03-13T14:19:59.377Z,17.39
2023-03-13T14:30:21.329Z,17.14
2023-03-13T14:40:42.748Z,17.23
2023-03-13T14:51:15.113Z,17.34
2023-03-13T15:01:37.379Z,17.19
2023-03-13T15:11:59.643Z,17.25
2023-03-13T15:22:28.708Z,17.36
2023-03-13T15:32:50.343Z,17.54
2023-03-13T15:43:12.726Z,17.41
2023-03-13T15:53:35.412Z,17.14
2023-03-13T16:03:58.161Z,17.02
2023-03-13T16:14:19.614Z,16.91
2023-03-13T16:24:41.082Z,16.75
2023-03-13T16:35:02.543Z,16.91
2023-03-13T16:45:23.960Z,16.74
2023-03-13T16:55:45.427Z,16.43
2023-03-13T17:06:07.009Z,16.01
2023-03-13T17:16:33.044Z,15.86
2023-03-13T17:26:54.402Z,15.73
2023-03-13T17:37:20.124Z,15.55
2023-03-13T17:47:41.902Z,15.31
2023-03-13T17:58:03.310Z,15.05
2023-03-13T18:08:25.862Z,14.82
2023-03-13T18:18:47.220Z,14.60
2023-03-13T18:29:29.345Z,14.35
2023-03-13T18:39:51.384Z,14.19
2023-03-13T18:50:18.904Z,14.02
2023-03-13T19:00:40.336Z,13.79
2023-03-13T19:11:01.766Z,13.66
2023-03-13T19:21:24.376Z,13.53
2023-03-13T19:31:45.931Z,13.47
2023-03-13T19:42:08.180Z,13.46
2023-03-13T19:52:29.598Z,13.44
2023-03-13T20:02:54.803Z,13.32
2023-03-13T20:13:16.324Z,13.16
2023-03-13T20:23:37.767Z,12.95
2023-03-13T20:33:59.271Z,12.86
2023-03-13T20:44:20.736Z,12.80
2023-03-13T20:54:42.193Z,12.79
2023-03-13T21:05:03.710Z,12.74
2023-03-13T21:15:25.190Z,12.73
2023-03-13T21:25:52.143Z,12.73
2023-03-13T21:36:14.734Z,12.83
2023-03-13T21:46:36.171Z,12.84
2023-03-13T21:56:57.689Z,12.80
2023-03-13T22:07:19.098Z,12.72
2023-03-13T22:17:40.484Z,12.64
2023-03-13T22:28:01.856Z,12.59
2023-03-13T22:38:23.496Z,12.55
2023-03-13T22:48:44.856Z,12.49
2023-03-13T22:59:06.281Z,12.56
2023-03-13T23:09:27.625Z,12.49
2023-03-13T23:19:48.972Z,12.47
2023-03-13T23:30:12.523Z,12.45
2023-03-13T23:40:34.015Z,12.37
2023-03-13T23:50:55.544Z,12.27
